createdAt,value
2023-05-05T00:00:13.521Z,12.21
2023-05-05T00:03:01.550Z,12.24
2023-05-05T00:05:30.795Z,12.24
2023-05-05T00:07:59.124Z,12.26
2023-05-05T00:10:27.344Z,12.28
2023-05-05T00:12:55.372Z,12.28
2023-05-05T00:15:23.379Z,12.24
2023-05-05T00:17:51.453Z,12.25
2023-05-05T00:20:19.633Z,12.26
2023-05-05T00:22:47.637Z,12.26
2023-05-05T00:25:15.958Z,12.26
2023-05-05T00:27:43.980Z,12.26
2023-05-05T00:30:13.821Z,12.22
2023-05-05T00:32:41.875Z,12.19
2023-05-05T00:35:10.166Z,12.14
2023-05-05T00:37:38.369Z,12.08
2023-05-05T00:40:07.680Z,12.04
2023-05-05T00:42:41.528Z,11.95
2023-05-05T00:45:11.451Z,11.85
2023-05-05T00:47:41.673Z,11.72
2023-05-05T00:50:11.069Z,11.61
2023-05-05T00:52:39.437Z,11.49
2023-05-05T00:55:08.457Z,11.39
2023-05-05T00:57:36.676Z,11.27
2023-05-05T01:00:06.401Z,11.16
2023-05-05T01:02:34.772Z,11.09
2023-05-05T01:05:04.256Z,11.04
2023-05-05T01:08:14.245Z,11.00
2023-05-05T01:11:14.643Z,10.90
2023-05-05T01:13:42.929Z,10.83
2023-05-05T01:16:31.038Z,10.76
2023-05-05T01:19:20.660Z,10.69
2023-05-05T01:21:54.593Z,10.63
2023-05-05T01:24:46.893Z,10.58
2023-05-05T01:27:34.457Z,10.54
2023-05-05T01:30:28.294Z,10.51
2023-05-05T01:33:03.903Z,10.47
2023-05-05T01:35:38.181Z,10.40
2023-05-05T01:38:10.014Z,10.34
2023-05-05T01:40:43.850Z,10.28
2023-05-05T01:43:15.368Z,10.24
2023-05-05T01:45:45.978Z,10.21
2023-05-05T01:48:18.395Z,10.20
2023-05-05T01:50:48.471Z,10.15
2023-05-05T01:53:19.212Z,10.07
2023-05-05T01:55:49.495Z,10.01
2023-05-05T01:58:18.572Z,9.92
2023-05-05T02:00:49.177Z,9.83
2023-05-05T02:03:19.697Z,9.80
2023-05-05T02:05:49.329Z,9.81
2023-05-05T02:08:18.859Z,9.83
2023-05-05T02:10:49.372Z,9.83
2023-05-05T02:13:19.538Z,9.80
2023-05-05T02:15:49.555Z,9.77
2023-05-05T02:18:18.870Z,9.74
2023-05-05T02:20:47.496Z,9.68
2023-05-05T02:23:15.710Z,9.66
2023-05-05T02:25:49.458Z,9.65
2023-05-05T02:28:21.901Z,9.63
2023-05-05T02:30:59.988Z,9.64
2023-05-05T02:33:32.780Z,9.61
2023-05-05T02:36:19.774Z,9.57
2023-05-05T02:39:03.857Z,9.49
2023-05-05T02:41:38.374Z,9.39
2023-05-05T02:44:13.037Z,9.33
2023-05-05T02:46:42.873Z,9.29
2023-05-05T02:49:11.170Z,9.28
2023-05-05T02:51:39.493Z,9.30
2023-05-05T02:54:11.025Z,9.32
2023-05-05T02:56:50.228Z,9.36
2023-05-05T02:59:31.151Z,9.36
2023-05-05T03:02:38.051Z,9.37
2023-05-05T03:05:19.169Z,9.36
2023-05-05T03:08:02.745Z,9.34
2023-05-05T03:10:41.804Z,9.29
2023-05-05T03:13:11.956Z,9.30
2023-05-05T03:15:52.548Z,9.27
2023-05-05T03:18:25.432Z,9.23
2023-05-05T03:21:08.101Z,9.21
2023-05-05T03:23:37.321Z,9.23
2023-05-05T03:26:07.899Z,9.26
2023-05-05T03:28:39.580Z,9.29
2023-05-05T03:31:14.031Z,9.32
2023-05-05T03:33:42.447Z,9.34
2023-05-05T03:36:10.871Z,9.34
2023-05-05T03:38:39.103Z,9.35
2023-05-05T03:41:07.112Z,9.36
2023-05-05T03:43:35.729Z,9.38
2023-05-05T03:46:04.016Z,9.45
2023-05-05T03:48:32.168Z,9.56
2023-05-05T03:51:00.627Z,9.66
2023-05-05T03:53:29.365Z,9.77
2023-05-05T03:55:57.438Z,9.88
2023-05-05T03:58:25.762Z,9.96
2023-05-05T04:00:53.875Z,10.02
2023-05-05T04:03:22.168Z,10.08
2023-05-05T04:05:50.626Z,10.16
2023-05-05T04:08:18.736Z,10.27
2023-05-05T04:10:46.860Z,10.38
2023-05-05T04:13:15.006Z,10.47
2023-05-05T04:15:47.072Z,10.58
2023-05-05T04:18:15.636Z,10.68
2023-05-05T04:20:44.357Z,10.78
2023-05-05T04:23:12.776Z,10.87
2023-05-05T04:25:41.397Z,10.96
2023-05-05T04:28:10.824Z,11.07
2023-05-05T04:30:39.246Z,11.20
2023-05-05T04:33:07.673Z,11.34
2023-05-05T04:35:35.788Z,11.49
2023-05-05T04:38:03.909Z,11.65
2023-05-05T04:40:32.427Z,11.77
2023-05-05T04:43:00.748Z,11.88
2023-05-05T04:45:29.872Z,11.99
2023-05-05T04:47:58.288Z,12.09
2023-05-05T04:50:27.218Z,12.19
2023-05-05T04:52:56.448Z,12.34
2023-05-05T04:55:25.468Z,12.46
2023-05-05T04:57:54.081Z,12.55
2023-05-05T05:00:21.997Z,12.67
2023-05-05T05:02:50.104Z,12.77
2023-05-05T05:05:18.457Z,12.86
2023-05-05T05:07:46.562Z,12.94
2023-05-05T05:10:14.986Z,13.05
2023-05-05T05:12:43.025Z,13.18
2023-05-05T05:15:13.194Z,13.25
2023-05-05T05:17:41.768Z,13.34
2023-05-05T05:20:10.656Z,13.44
2023-05-05T05:22:39.395Z,13.53
2023-05-05T05:25:10.224Z,13.64
2023-05-05T05:27:38.344Z,13.75
2023-05-05T05:30:07.732Z,13.85
2023-05-05T05:32:36.321Z,13.95
2023-05-05T05:35:05.116Z,14.04
2023-05-05T05:37:35.062Z,14.16
2023-05-05T05:40:05.596Z,14.31
2023-05-05T05:42:34.085Z,14.44
2023-05-05T05:45:02.308Z,14.55
2023-05-05T05:47:31.110Z,14.64
2023-05-05T05:49:59.364Z,14.73
2023-05-05T05:52:27.369Z,14.81
2023-05-05T05:54:55.887Z,14.91
2023-05-05T05:57:24.755Z,15.00
2023-05-05T05:59:54.136Z,15.10
2023-05-05T06:02:22.983Z,15.18
2023-05-05T06:04:51.725Z,15.28
2023-05-05T06:07:20.183Z,15.36
2023-05-05T06:09:48.536Z,15.44
2023-05-05T06:12:16.741Z,15.52
2023-05-05T06:14:44.962Z,15.61
2023-05-05T06:17:12.988Z,15.71
2023-05-05T06:19:42.405Z,15.80
2023-05-05T06:22:11.125Z,15.85
2023-05-05T06:24:39.245Z,15.90
2023-05-05T06:27:07.465Z,15.99
2023-05-05T06:29:35.488Z,16.09
2023-05-05T06:32:03.506Z,16.14
2023-05-05T06:34:31.726Z,16.23
2023-05-05T06:36:59.748Z,16.33
2023-05-05T06:39:27.768Z,16.47
2023-05-05T06:41:56.136Z,16.57
2023-05-05T06:44:24.106Z,16.67
2023-05-05T06:46:52.170Z,16.74
2023-05-05T06:49:20.247Z,16.82
2023-05-05T06:51:48.669Z,16.92
2023-05-05T06:54:16.915Z,16.99
2023-05-05T06:56:45.512Z,17.07
2023-05-05T06:59:13.848Z,17.19
2023-05-05T07:01:41.857Z,17.40
2023-05-05T07:04:10.137Z,17.59
2023-05-05T07:06:38.300Z,17.72
2023-05-05T07:09:06.812Z,17.84
2023-05-05T07:11:35.234Z,17.91
2023-05-05T07:14:03.555Z,18.04
2023-05-05T07:16:31.599Z,18.17
2023-05-05T07:19:01.013Z,18.31
2023-05-05T07:21:29.020Z,18.42
2023-05-05T07:23:57.146Z,18.52
2023-05-05T07:26:25.762Z,18.61
2023-05-05T07:28:55.601Z,18.66
2023-05-05T07:31:23.641Z,18.78
2023-05-05T07:33:51.731Z,18.89
2023-05-05T07:36:20.047Z,19.03
2023-05-05T07:38:48.377Z,19.15
2023-05-05T07:41:16.490Z,19.23
2023-05-05T07:43:44.811Z,19.39
2023-05-05T07:46:14.053Z,19.56
2023-05-05T07:48:42.196Z,19.72
2023-05-05T07:51:11.174Z,19.76
2023-05-05T07:53:39.492Z,19.84
2023-05-05T07:56:08.934Z,19.94
2023-05-05T07:58:37.137Z,19.87
2023-05-05T08:01:06.670Z,19.77
2023-05-05T08:03:34.822Z,19.74
2023-05-05T08:06:09.372Z,19.77
2023-05-05T08:08:38.149Z,19.90
2023-05-05T08:11:06.912Z,19.93
2023-05-05T08:13:35.299Z,19.95
2023-05-05T08:16:03.726Z,19.89
2023-05-05T08:18:31.837Z,19.84
2023-05-05T08:20:59.852Z,19.77
2023-05-05T08:23:27.876Z,19.73
2023-05-05T08:25:56.197Z,19.73
2023-05-05T08:28:24.114Z,19.68
2023-05-05T08:30:52.231Z,19.66
2023-05-05T08:33:20.265Z,19.66
2023-05-05T08:35:49.673Z,19.76
2023-05-05T08:38:19.205Z,19.93
2023-05-05T08:40:47.327Z,20.05
2023-05-05T08:43:16.043Z,20.13
2023-05-05T08:45:45.022Z,20.17
2023-05-05T08:48:13.190Z,20.20
2023-05-05T08:50:44.995Z,20.20
2023-05-05T08:53:30.233Z,20.16
2023-05-05T08:56:01.091Z,20.12
2023-05-05T08:58:31.401Z,20.12
2023-05-05T09:01:01.631Z,20.14
2023-05-05T09:03:30.002Z,20.19
2023-05-05T09:05:58.121Z,20.22
2023-05-05T09:08:27.145Z,20.25
2023-05-05T09:10:56.065Z,20.35
2023-05-05T09:13:24.292Z,20.38
2023-05-05T09:15:52.312Z,20.37
2023-05-05T09:18:20.325Z,20.34
2023-05-05T09:20:48.562Z,20.41
2023-05-05T09:23:17.972Z,20.57
2023-05-05T09:26:05.060Z,20.76
2023-05-05T09:28:33.093Z,20.94
2023-05-05T09:31:16.276Z,21.12
2023-05-05T09:33:44.668Z,21.18
2023-05-05T09:36:12.704Z,21.21
2023-05-05T09:38:40.842Z,21.20
2023-05-05T09:41:08.943Z,21.34
2023-05-05T09:43:52.070Z,21.61
2023-05-05T09:46:20.247Z,21.69
2023-05-05T09:48:48.343Z,21.70
2023-05-05T09:51:16.363Z,21.80
2023-05-05T09:53:45.188Z,21.87
2023-05-05T09:56:13.302Z,21.93
2023-05-05T09:58:42.353Z,21.96
2023-05-05T10:01:23.845Z,22.00
2023-05-05T10:03:52.549Z,22.12
2023-05-05T10:06:20.633Z,22.13
2023-05-05T10:09:01.754Z,22.20
2023-05-05T10:11:30.422Z,22.28
2023-05-05T10:13:58.551Z,22.47
2023-05-05T10:16:30.296Z,22.61
2023-05-05T10:19:02.316Z,22.89
2023-05-05T10:21:40.218Z,22.98
2023-05-05T10:24:17.012Z,23.13
2023-05-05T10:26:46.736Z,23.17
2023-05-05T10:29:30.717Z,23.13
2023-05-05T10:32:18.922Z,23.25
2023-05-05T10:35:01.580Z,23.50
2023-05-05T10:37:30.601Z,23.71
2023-05-05T10:39:59.338Z,23.74
2023-05-05T10:42:27.966Z,23.71
2023-05-05T10:44:56.399Z,23.66
2023-05-05T10:47:25.324Z,23.76
2023-05-05T10:50:06.722Z,23.79
2023-05-05T10:53:05.889Z,23.80
2023-05-05T10:55:59.403Z,23.83
2023-05-05T10:58:47.134Z,23.93
2023-05-05T11:01:34.313Z,24.21
2023-05-05T11:04:24.978Z,24.30
2023-05-05T11:07:09.238Z,24.36
2023-05-05T11:09:55.426Z,24.37
2023-05-05T11:12:23.758Z,24.34
2023-05-05T11:15:27.464Z,24.34
2023-05-05T11:18:00.569Z,24.26
2023-05-05T11:20:36.033Z,24.27
2023-05-05T11:23:04.405Z,24.19
2023-05-05T11:25:42.277Z,24.15
2023-05-05T11:28:12.626Z,24.06
2023-05-05T11:30:59.357Z,24.14
2023-05-05T11:33:37.157Z,24.30
2023-05-05T11:36:16.040Z,24.38
2023-05-05T11:39:09.214Z,24.43
2023-05-05T11:42:10.201Z,24.50
2023-05-05T11:44:39.440Z,24.60
2023-05-05T11:47:07.668Z,24.62
2023-05-05T11:49:36.649Z,24.66
2023-05-05T11:52:13.164Z,24.61
2023-05-05T11:54:48.139Z,24.62
2023-05-05T11:57:21.106Z,24.66
2023-05-05T12:00:02.798Z,24.56
2023-05-05T12:02:33.074Z,24.56
2023-05-05T12:05:02.771Z,24.64
2023-05-05T12:07:33.622Z,24.80
2023-05-05T12:10:02.124Z,24.79
2023-05-05T12:12:36.038Z,24.73
2023-05-05T12:15:05.359Z,24.80
2023-05-05T12:17:42.749Z,24.84
2023-05-05T12:20:12.157Z,24.86
2023-05-05T12:22:40.950Z,24.93
2023-05-05T12:25:09.840Z,25.05
2023-05-05T12:27:38.954Z,25.04
2023-05-05T12:30:25.126Z,25.00
2023-05-05T12:33:02.082Z,24.89
2023-05-05T12:35:31.235Z,24.87
2023-05-05T12:37:59.376Z,24.95
2023-05-05T12:40:46.674Z,25.06
2023-05-05T12:43:44.284Z,25.15
2023-05-05T12:46:13.383Z,24.95
2023-05-05T12:48:48.192Z,24.67
2023-05-05T12:51:19.953Z,24.38
2023-05-05T12:53:50.588Z,24.38
2023-05-05T12:56:35.092Z,24.45
2023-05-05T12:59:36.533Z,24.48
2023-05-05T13:02:04.912Z,24.64
2023-05-05T13:04:33.077Z,24.58
2023-05-05T13:07:15.252Z,24.30
2023-05-05T13:09:43.258Z,24.21
2023-05-05T13:12:14.301Z,23.94
2023-05-05T13:14:43.027Z,23.67
2023-05-05T13:17:12.133Z,23.56
2023-05-05T13:19:46.527Z,23.69
2023-05-05T13:22:14.910Z,23.72
2023-05-05T13:24:51.890Z,23.48
2023-05-05T13:27:21.238Z,23.34
2023-05-05T13:29:49.342Z,23.50
2023-05-05T13:32:17.313Z,23.48
2023-05-05T13:34:45.471Z,23.68
2023-05-05T13:37:13.354Z,23.59
2023-05-05T13:39:41.405Z,23.41
2023-05-05T13:42:09.919Z,23.11
2023-05-05T13:44:37.921Z,23.04
2023-05-05T13:47:06.075Z,22.97
2023-05-05T13:49:34.856Z,22.86
2023-05-05T13:52:03.182Z,22.81
2023-05-05T13:54:31.098Z,22.87
2023-05-05T13:56:59.316Z,22.87
2023-05-05T13:59:27.533Z,22.70
2023-05-05T14:01:56.157Z,22.44
2023-05-05T14:04:24.278Z,22.26
2023-05-05T14:06:53.627Z,22.30
2023-05-05T14:09:21.723Z,22.26
2023-05-05T14:11:49.640Z,22.37
2023-05-05T14:14:18.162Z,22.44
2023-05-05T14:16:48.483Z,22.39
2023-05-05T14:19:18.016Z,22.32
2023-05-05T14:21:46.138Z,22.40
2023-05-05T14:24:14.159Z,22.36
2023-05-05T14:26:42.178Z,22.26
2023-05-05T14:29:10.300Z,22.27
2023-05-05T14:31:38.326Z,22.29
2023-05-05T14:34:06.832Z,22.20
2023-05-05T14:36:34.853Z,22.08
2023-05-05T14:39:03.074Z,22.05
2023-05-05T14:41:31.095Z,22.12
2023-05-05T14:43:59.413Z,22.20
2023-05-05T14:46:27.604Z,22.17
2023-05-05T14:48:55.672Z,22.14
2023-05-05T14:51:23.679Z,22.14
2023-05-05T14:53:51.894Z,22.09
2023-05-05T14:56:22.643Z,22.01
2023-05-05T14:58:52.142Z,21.96
2023-05-05T15:01:21.083Z,21.91
2023-05-05T15:03:49.195Z,21.84
2023-05-05T15:06:17.217Z,21.81
2023-05-05T15:08:45.233Z,21.81
2023-05-05T15:11:13.954Z,21.83
2023-05-05T15:13:41.967Z,21.81
2023-05-05T15:16:10.429Z,21.77
2023-05-05T15:18:38.582Z,21.60
2023-05-05T15:21:06.632Z,21.57
2023-05-05T15:23:34.949Z,21.47
2023-05-05T15:26:03.178Z,21.47
2023-05-05T15:28:31.290Z,21.51
2023-05-05T15:31:03.723Z,21.53
2023-05-05T15:33:31.866Z,21.61
2023-05-05T15:36:00.477Z,21.60
2023-05-05T15:38:29.789Z,21.62
2023-05-05T15:40:57.911Z,21.72
2023-05-05T15:43:25.928Z,21.76
2023-05-05T15:45:54.050Z,21.76
2023-05-05T15:48:22.069Z,21.80
2023-05-05T15:50:50.390Z,21.86
2023-05-05T15:53:18.406Z,21.86
2023-05-05T15:55:46.929Z,21.80
2023-05-05T15:58:14.956Z,21.74
2023-05-05T16:00:42.969Z,21.59
2023-05-05T16:03:11.720Z,21.49
2023-05-05T16:05:39.706Z,21.45
2023-05-05T16:08:10.145Z,21.35
2023-05-05T16:10:38.359Z,21.23
2023-05-05T16:13:06.357Z,21.22
2023-05-05T16:15:35.707Z,21.34
2023-05-05T16:18:03.972Z,21.45
2023-05-05T16:20:32.146Z,21.44
2023-05-05T16:23:00.164Z,21.48
2023-05-05T16:25:28.302Z,21.30
2023-05-05T16:27:57.637Z,21.12
2023-05-05T16:30:26.236Z,21.04
2023-05-05T16:32:54.843Z,20.98
2023-05-05T16:35:23.180Z,20.75
2023-05-05T16:37:51.390Z,20.51
2023-05-05T16:40:19.407Z,20.25
2023-05-05T16:42:47.443Z,20.13
2023-05-05T16:45:15.591Z,19.94
2023-05-05T16:47:43.790Z,19.74
2023-05-05T16:50:11.901Z,19.53
2023-05-05T16:52:39.913Z,19.38
2023-05-05T16:55:08.645Z,19.16
2023-05-05T16:57:36.855Z,18.87
2023-05-05T17:00:07.645Z,18.69
2023-05-05T17:02:36.031Z,18.46
2023-05-05T17:05:04.705Z,18.21
2023-05-05T17:07:32.865Z,17.95
2023-05-05T17:10:00.972Z,17.68
2023-05-05T17:12:28.999Z,17.48
2023-05-05T17:14:57.006Z,17.27
2023-05-05T17:17:25.039Z,17.11
2023-05-05T17:19:53.045Z,16.98
2023-05-05T17:22:21.066Z,16.90
2023-05-05T17:24:49.096Z,16.77
2023-05-05T17:27:17.139Z,16.66
2023-05-05T17:29:45.122Z,16.57
2023-05-05T17:32:13.199Z,16.46
2023-05-05T17:34:41.564Z,16.32
2023-05-05T17:37:09.891Z,16.20
2023-05-05T17:39:38.003Z,16.06
2023-05-05T17:42:06.124Z,15.91
2023-05-05T17:44:34.140Z,15.80
2023-05-05T17:47:04.031Z,15.73
2023-05-05T17:49:32.289Z,15.64
2023-05-05T17:52:00.722Z,15.57
2023-05-05T17:54:28.631Z,15.47
2023-05-05T17:56:56.684Z,15.38
2023-05-05T17:59:24.781Z,15.31
2023-05-05T18:01:52.793Z,15.23
2023-05-05T18:04:20.810Z,15.17
2023-05-05T18:06:48.832Z,15.12
2023-05-05T18:09:17.825Z,15.03
2023-05-05T18:11:46.071Z,14.96
2023-05-05T18:14:14.097Z,14.93
2023-05-05T18:16:47.840Z,14.89
2023-05-05T18:19:18.415Z,14.77
2023-05-05T18:21:46.897Z,14.66
2023-05-05T18:24:20.479Z,14.54
2023-05-05T18:26:50.978Z,14.37
2023-05-05T18:29:20.282Z,14.24
2023-05-05T18:31:51.784Z,14.13
2023-05-05T18:34:20.969Z,14.04
2023-05-05T18:36:51.535Z,13.98
2023-05-05T18:39:20.382Z,13.90
2023-05-05T18:41:48.405Z,13.85
2023-05-05T18:44:16.418Z,13.84
2023-05-05T18:46:44.899Z,13.77
2023-05-05T18:49:13.061Z,13.72
2023-05-05T18:51:41.585Z,13.66
2023-05-05T18:54:09.459Z,13.57
2023-05-05T18:56:37.637Z,13.44
2023-05-05T18:59:05.752Z,13.38
2023-05-05T19:01:33.770Z,13.28
2023-05-05T19:04:01.813Z,13.15
2023-05-05T19:06:29.998Z,13.05
2023-05-05T19:08:58.536Z,12.98
2023-05-05T19:11:26.543Z,12.89
2023-05-05T19:13:54.678Z,12.81
2023-05-05T19:16:23.200Z,12.79
2023-05-05T19:18:51.205Z,12.75
2023-05-05T19:21:19.425Z,12.71
2023-05-05T19:23:47.443Z,12.67
2023-05-05T19:26:16.366Z,12.61
2023-05-05T19:28:44.387Z,12.54
2023-05-05T19:31:12.408Z,12.44
2023-05-05T19:33:45.266Z,12.36
2023-05-05T19:36:13.365Z,12.29
2023-05-05T19:38:44.567Z,12.25
2023-05-05T19:41:12.809Z,12.21
2023-05-05T19:43:40.843Z,12.19
2023-05-05T19:46:08.937Z,12.20
2023-05-05T19:48:37.172Z,12.20
2023-05-05T19:51:05.194Z,12.19
2023-05-05T19:53:33.210Z,12.19
2023-05-05T19:56:01.226Z,12.15
2023-05-05T19:58:29.246Z,12.12
2023-05-05T20:00:57.363Z,12.09
2023-05-05T20:03:25.882Z,12.07
2023-05-05T20:05:54.010Z,12.04
2023-05-05T20:08:22.037Z,12.05
2023-05-05T20:10:50.854Z,12.05
2023-05-05T20:13:18.916Z,12.04
2023-05-05T20:15:47.306Z,12.04
2023-05-05T20:18:15.410Z,12.02
2023-05-05T20:20:43.428Z,12.01
2023-05-05T20:23:11.553Z,12.01
2023-05-05T20:25:39.572Z,12.01
2023-05-05T20:28:07.604Z,11.99
2023-05-05T20:30:35.912Z,11.98
2023-05-05T20:33:04.170Z,12.00
2023-05-05T20:35:32.362Z,12.00
2023-05-05T20:38:00.374Z,11.99
2023-05-05T20:40:28.341Z,11.97
2023-05-05T20:42:56.430Z,11.97
2023-05-05T20:45:25.044Z,11.95
2023-05-05T20:47:53.238Z,11.91
2023-05-05T20:50:21.574Z,11.88
2023-05-05T20:52:49.709Z,11.87
2023-05-05T20:55:17.717Z,11.87
2023-05-05T20:57:46.285Z,11.88
2023-05-05T21:00:14.659Z,11.89
2023-05-05T21:02:43.062Z,11.90
2023-05-05T21:05:12.005Z,11.90
2023-05-05T21:07:40.120Z,11.91
2023-05-05T21:10:09.494Z,11.90
2023-05-05T21:12:38.118Z,11.87
2023-05-05T21:15:07.556Z,11.84
2023-05-05T21:17:36.252Z,11.80
2023-05-05T21:20:04.932Z,11.78
2023-05-05T21:22:32.965Z,11.77
2023-05-05T21:25:15.637Z,11.76
2023-05-05T21:27:44.746Z,11.76
2023-05-05T21:30:13.399Z,11.79
2023-05-05T21:32:42.224Z,11.83
2023-05-05T21:35:10.910Z,11.84
2023-05-05T21:37:39.631Z,11.86
2023-05-05T21:40:13.930Z,11.85
2023-05-05T21:42:43.399Z,11.88
2023-05-05T21:45:12.135Z,11.87
2023-05-05T21:47:40.386Z,11.87
2023-05-05T21:50:10.411Z,11.86
2023-05-05T21:52:38.705Z,11.84
2023-05-05T21:55:07.348Z,11.80
2023-05-05T21:57:35.365Z,11.82
2023-05-05T22:00:05.815Z,11.83
2023-05-05T22:02:40.603Z,11.84
2023-05-05T22:05:09.529Z,11.84
2023-05-05T22:07:37.651Z,11.85
2023-05-05T22:10:06.675Z,11.86
2023-05-05T22:12:34.816Z,11.85
2023-05-05T22:15:02.913Z,11.85
2023-05-05T22:17:30.950Z,11.82
2023-05-05T22:19:58.953Z,11.76
2023-05-05T22:22:26.970Z,11.72
2023-05-05T22:24:54.989Z,11.73
2023-05-05T22:27:23.312Z,11.74
2023-05-05T22:29:51.328Z,11.77
2023-05-05T22:32:20.657Z,11.77
2023-05-05T22:34:48.772Z,11.77
2023-05-05T22:37:16.794Z,11.79
2023-05-05T22:39:44.911Z,11.76
2023-05-05T22:42:12.948Z,11.73
2023-05-05T22:44:40.960Z,11.70
2023-05-05T22:47:09.279Z,11.64
2023-05-05T22:49:37.569Z,11.58
2023-05-05T22:52:05.721Z,11.53
2023-05-05T22:54:33.745Z,11.50
2023-05-05T22:57:02.376Z,11.50
2023-05-05T22:59:30.283Z,11.48
2023-05-05T23:01:58.490Z,11.45
2023-05-05T23:04:26.545Z,11.45
2023-05-05T23:06:54.631Z,11.42
2023-05-05T23:09:22.657Z,11.38
2023-05-05T23:11:50.674Z,11.34
2023-05-05T23:14:19.602Z,11.29
2023-05-05T23:16:47.646Z,11.23
2023-05-05T23:19:15.843Z,11.19
2023-05-05T23:21:52.635Z,11.17
2023-05-05T23:24:22.131Z,11.19
2023-05-05T23:26:50.233Z,11.22
2023-05-05T23:29:19.315Z,11.25
2023-05-05T23:31:47.574Z,11.30
2023-05-05T23:34:15.605Z,11.36
2023-05-05T23:36:43.887Z,11.41
2023-05-05T23:39:12.148Z,11.47
2023-05-05T23:41:40.358Z,11.54
2023-05-05T23:44:08.484Z,11.64
2023-05-05T23:46:36.466Z,11.75
2023-05-05T23:49:04.513Z,11.84
2023-05-05T23:51:32.585Z,11.90
2023-05-05T23:54:01.264Z,11.96
2023-05-05T23:56:29.179Z,12.00
2023-05-05T23:58:57.194Z,12.03
